TJIG/SIG METAR and TAF weather

Enter ICAO airport designator
Station Type Date Time Source
TJIG METAR 2021/07/24 18:59 UTC NOAA

TJIG 241859Z 11008KT 7SM -RA SCT025 BKN070 27/26 A2996


Station Type Date Time Source
TJIG Decoded METAR 2021/07/24 18:59 UTC NOAA

Station name not available
Jul 24, 2021 - 02:59 PM EDT / 2021.07.24 1859 UTC
Wind: from the ESE (110 degrees) at 9 MPH (8 KT):0
Visibility: 7 mile(s):0
Sky conditions: mostly cloudy
Weather: light rain
Temperature: 80 F (27 C)
Dew Point: 78 F (26 C)
Relative Humidity: 94%
Pressure (altimeter): 29.96 in. Hg (1014 hPa)
ob: TJIG 241859Z 11008KT 7SM -RA SCT025 BKN070 27/26 A2996
cycle: 19

Station Type Date Time Source
TJIG TAF UTC NOAA

Error!

Example: see airport list